createdAt,value
2018-08-13T00:00:24.767Z,19.85
2018-08-13T00:03:28.465Z,19.77
2018-08-13T00:06:32.095Z,19.76
2018-08-13T00:09:42.001Z,19.80
2018-08-13T00:12:45.708Z,19.66
2018-08-13T00:15:49.541Z,19.60
2018-08-13T00:18:53.244Z,19.58
2018-08-13T00:21:56.883Z,19.45
2018-08-13T00:25:00.468Z,19.41
2018-08-13T00:28:04.852Z,19.32
2018-08-13T00:31:08.461Z,19.29
2018-08-13T00:34:12.127Z,19.26
2018-08-13T00:37:15.677Z,19.25
2018-08-13T00:40:19.457Z,19.18
2018-08-13T00:43:23.144Z,19.11
2018-08-13T00:46:26.888Z,19.12
2018-08-13T00:49:30.727Z,19.12
2018-08-13T00:52:34.393Z,19.25
2018-08-13T00:55:38.131Z,19.29
2018-08-13T00:58:41.877Z,19.29
2018-08-13T01:01:45.591Z,19.24
2018-08-13T01:04:49.237Z,19.21
2018-08-13T01:07:52.968Z,19.27
2018-08-13T01:10:56.719Z,19.33
2018-08-13T01:14:00.352Z,19.32
2018-08-13T01:17:04.165Z,19.31
2018-08-13T01:20:09.958Z,19.40
2018-08-13T01:23:14.102Z,19.40
2018-08-13T01:26:17.717Z,19.62
2018-08-13T01:29:21.511Z,19.59
2018-08-13T01:32:25.126Z,19.62
2018-08-13T01:35:28.832Z,19.57
2018-08-13T01:38:32.599Z,19.52
2018-08-13T01:41:36.417Z,19.47
2018-08-13T01:44:40.066Z,19.45
2018-08-13T01:47:43.661Z,19.41
2018-08-13T01:50:47.389Z,19.31
2018-08-13T01:53:51.048Z,19.38
2018-08-13T01:56:54.671Z,19.42
2018-08-13T01:59:58.417Z,19.38
2018-08-13T02:03:02.122Z,19.33
2018-08-13T02:06:05.789Z,19.39
2018-08-13T02:09:11.364Z,19.39
2018-08-13T02:12:15.063Z,19.40
2018-08-13T02:15:18.784Z,19.51
2018-08-13T02:18:22.412Z,19.47
2018-08-13T02:21:26.181Z,19.39
2018-08-13T02:24:30.057Z,19.36
2018-08-13T02:27:33.799Z,19.36
2018-08-13T02:30:37.589Z,19.31
2018-08-13T02:33:41.286Z,19.28
2018-08-13T02:36:44.900Z,19.32
2018-08-13T02:39:48.509Z,19.27
2018-08-13T02:42:52.172Z,19.28
2018-08-13T02:45:55.813Z,19.31
2018-08-13T02:48:59.507Z,19.36
2018-08-13T02:52:03.279Z,19.45
2018-08-13T02:55:07.504Z,19.45
2018-08-13T02:58:11.195Z,19.55
2018-08-13T03:01:14.730Z,19.57
2018-08-13T03:04:18.350Z,19.52
2018-08-13T03:07:21.959Z,19.60
2018-08-13T03:10:25.627Z,19.66
2018-08-13T03:13:29.381Z,19.72
2018-08-13T03:16:33.034Z,19.68
2018-08-13T03:19:36.680Z,19.65
2018-08-13T03:22:40.488Z,19.62
2018-08-13T03:25:44.319Z,19.68
2018-08-13T03:28:48.069Z,19.74
2018-08-13T03:31:51.703Z,19.74
2018-08-13T03:34:55.453Z,19.80
2018-08-13T03:37:59.092Z,19.77
2018-08-13T03:41:02.954Z,19.84
2018-08-13T03:44:07.026Z,19.69
2018-08-13T03:47:10.711Z,19.71
2018-08-13T03:50:14.384Z,19.73
2018-08-13T03:53:18.050Z,19.72
2018-08-13T03:56:21.687Z,19.76
2018-08-13T03:59:25.428Z,19.69
2018-08-13T04:02:29.213Z,19.67
2018-08-13T04:05:32.908Z,19.62
2018-08-13T04:08:36.730Z,19.52
2018-08-13T04:11:40.344Z,19.50
2018-08-13T04:14:43.918Z,19.57
2018-08-13T04:17:47.698Z,19.65
2018-08-13T04:20:51.298Z,19.96
2018-08-13T04:23:55.178Z,19.90
2018-08-13T04:26:59.440Z,20.07
2018-08-13T04:30:04.025Z,19.99
2018-08-13T04:33:07.663Z,19.94
2018-08-13T04:36:11.435Z,19.63
2018-08-13T04:39:16.205Z,19.62
2018-08-13T04:42:19.880Z,19.88
2018-08-13T04:45:23.628Z,20.02
2018-08-13T04:48:27.282Z,20.34
2018-08-13T04:51:30.946Z,20.40
2018-08-13T04:54:34.640Z,19.96
2018-08-13T04:57:38.401Z,19.86
2018-08-13T05:00:42.107Z,20.09
2018-08-13T05:03:45.734Z,20.65
2018-08-13T05:06:49.335Z,21.05
2018-08-13T05:09:52.964Z,21.51
2018-08-13T05:12:56.636Z,21.72
2018-08-13T05:16:00.256Z,22.12
2018-08-13T05:19:04.206Z,22.49
2018-08-13T05:22:07.889Z,22.22
2018-08-13T05:25:11.795Z,22.10
2018-08-13T05:28:15.395Z,21.93
2018-08-13T05:31:19.121Z,21.66
2018-08-13T05:34:22.870Z,21.69
2018-08-13T05:37:26.446Z,23.26
2018-08-13T05:40:30.124Z,24.44
2018-08-13T05:43:33.781Z,25.37
2018-08-13T05:46:37.434Z,26.25
2018-08-13T05:49:41.081Z,26.83
2018-08-13T05:52:44.894Z,26.61
2018-08-13T05:55:48.611Z,27.21
2018-08-13T05:58:52.305Z,27.10
2018-08-13T06:01:55.964Z,26.57
2018-08-13T06:04:59.654Z,25.84
2018-08-13T06:08:03.304Z,25.61
2018-08-13T06:11:07.154Z,25.00
2018-08-13T06:14:10.978Z,24.49
2018-08-13T06:17:14.927Z,24.30
2018-08-13T06:20:18.595Z,24.34
2018-08-13T06:23:22.834Z,24.24
2018-08-13T06:26:26.611Z,23.70
2018-08-13T06:29:30.305Z,23.98
2018-08-13T06:32:34.035Z,23.52
2018-08-13T06:35:37.970Z,23.10
2018-08-13T06:38:41.694Z,22.76
2018-08-13T06:41:45.344Z,22.58
2018-08-13T06:44:48.975Z,22.32
2018-08-13T06:47:52.754Z,22.60
2018-08-13T06:50:56.527Z,22.73
2018-08-13T06:54:00.177Z,22.98
2018-08-13T06:57:04.198Z,23.15
2018-08-13T07:00:10.406Z,23.15
2018-08-13T07:03:14.041Z,22.98
2018-08-13T07:06:17.677Z,23.12
2018-08-13T07:09:21.336Z,22.94
2018-08-13T07:12:25.105Z,22.78
2018-08-13T07:15:28.833Z,22.99
2018-08-13T07:18:32.683Z,22.66
2018-08-13T07:21:36.358Z,22.27
2018-08-13T07:24:40.201Z,22.26
2018-08-13T07:27:43.909Z,22.14
2018-08-13T07:30:47.599Z,22.24
2018-08-13T07:33:51.291Z,22.41
2018-08-13T07:36:55.116Z,22.21
2018-08-13T07:39:58.956Z,22.40
2018-08-13T07:43:02.906Z,22.37
2018-08-13T07:46:06.659Z,22.08
2018-08-13T07:49:10.602Z,22.28
2018-08-13T07:52:14.335Z,22.11
2018-08-13T07:55:18.852Z,21.77
2018-08-13T07:58:22.575Z,21.57
2018-08-13T08:01:26.208Z,21.95
2018-08-13T08:04:29.895Z,22.23
2018-08-13T08:07:33.553Z,21.68
2018-08-13T08:10:37.248Z,21.91
2018-08-13T08:13:41.011Z,21.39
2018-08-13T08:16:44.755Z,21.60
2018-08-13T08:19:48.461Z,21.58
2018-08-13T08:22:52.371Z,21.67
2018-08-13T08:25:56.219Z,21.43
2018-08-13T08:28:59.987Z,21.42
2018-08-13T08:32:03.792Z,21.50
2018-08-13T08:35:09.472Z,21.46
2018-08-13T08:38:13.429Z,21.39
2018-08-13T08:41:17.152Z,21.47
2018-08-13T08:44:21.067Z,21.37
2018-08-13T08:47:24.882Z,21.54
2018-08-13T08:50:28.680Z,21.45
2018-08-13T08:53:32.526Z,21.50
2018-08-13T08:56:36.221Z,21.73
2018-08-13T08:59:39.953Z,21.39
2018-08-13T09:02:43.604Z,21.17
2018-08-13T09:05:47.321Z,20.95
2018-08-13T09:08:51.113Z,20.76
2018-08-13T09:11:54.872Z,20.77
2018-08-13T09:14:58.838Z,21.13
2018-08-13T09:18:13.515Z,20.83
2018-08-13T09:21:29.625Z,20.47
2018-08-13T09:24:44.493Z,20.49
2018-08-13T09:27:59.188Z,20.79
2018-08-13T09:31:14.229Z,20.71
2018-08-13T09:34:33.838Z,20.93
2018-08-13T09:37:37.574Z,21.10
2018-08-13T09:40:41.235Z,20.86
2018-08-13T09:43:44.927Z,20.76
2018-08-13T09:46:48.588Z,20.42
2018-08-13T09:49:52.189Z,20.50
2018-08-13T09:52:55.999Z,20.77
2018-08-13T09:55:59.643Z,20.63
2018-08-13T09:59:03.278Z,20.89
2018-08-13T10:02:07.045Z,20.77
2018-08-13T10:05:10.917Z,20.88
2018-08-13T10:08:14.624Z,20.83
2018-08-13T10:11:18.390Z,20.85
2018-08-13T10:14:22.094Z,20.95
2018-08-13T10:17:26.031Z,21.24
2018-08-13T10:20:29.844Z,21.57
2018-08-13T10:23:33.620Z,21.55
2018-08-13T10:26:37.397Z,21.24
2018-08-13T10:29:41.114Z,21.57
2018-08-13T10:32:44.958Z,21.62
2018-08-13T10:35:48.690Z,21.68
2018-08-13T10:38:53.649Z,22.05
2018-08-13T10:41:57.343Z,21.99
2018-08-13T10:45:01.072Z,22.25
2018-08-13T10:48:04.914Z,22.49
2018-08-13T10:51:08.589Z,22.38
2018-08-13T10:54:12.244Z,22.38
2018-08-13T10:57:16.207Z,22.72
2018-08-13T11:00:19.836Z,23.03
2018-08-13T11:03:23.546Z,22.97
2018-08-13T11:06:27.465Z,22.57
2018-08-13T11:09:31.106Z,22.20
2018-08-13T11:12:34.993Z,22.39
2018-08-13T11:15:38.844Z,22.40
2018-08-13T11:18:42.633Z,22.47
2018-08-13T11:21:46.456Z,22.13
2018-08-13T11:24:50.263Z,21.93
2018-08-13T11:27:53.981Z,21.75
2018-08-13T11:30:57.631Z,21.68
2018-08-13T11:34:01.384Z,21.79
2018-08-13T11:37:05.164Z,21.98
2018-08-13T11:40:13.055Z,22.34
2018-08-13T11:43:16.763Z,21.91
2018-08-13T11:46:20.458Z,21.85
2018-08-13T11:49:24.137Z,21.90
2018-08-13T11:52:27.908Z,22.10
2018-08-13T11:55:31.560Z,22.61
2018-08-13T11:58:35.883Z,23.08
2018-08-13T12:01:39.637Z,23.39
2018-08-13T12:04:43.276Z,22.93
2018-08-13T12:07:47.151Z,22.83
2018-08-13T12:10:50.775Z,23.12
2018-08-13T12:13:54.430Z,23.54
2018-08-13T12:16:58.261Z,23.35
2018-08-13T12:20:02.293Z,23.95
2018-08-13T12:23:06.100Z,24.41
2018-08-13T12:26:09.973Z,24.45
2018-08-13T12:29:13.716Z,25.09
2018-08-13T12:32:17.416Z,25.29
2018-08-13T12:35:21.415Z,24.61
2018-08-13T12:38:25.232Z,25.00
2018-08-13T12:41:28.945Z,24.49
2018-08-13T12:44:32.763Z,24.51
2018-08-13T12:47:36.705Z,24.68
2018-08-13T12:50:40.531Z,25.45
2018-08-13T12:53:44.335Z,24.60
2018-08-13T12:56:48.228Z,24.63
2018-08-13T12:59:52.024Z,24.76
2018-08-13T13:02:55.750Z,24.94
2018-08-13T13:05:59.516Z,24.61
2018-08-13T13:09:03.842Z,24.95
2018-08-13T13:12:07.502Z,25.63
2018-08-13T13:15:12.888Z,25.39
2018-08-13T13:18:16.675Z,25.21
2018-08-13T13:21:20.498Z,25.47
2018-08-13T13:24:24.388Z,24.83
2018-08-13T13:27:28.240Z,24.92
2018-08-13T13:30:32.067Z,24.47
2018-08-13T13:33:35.746Z,24.39
2018-08-13T13:36:39.573Z,24.76
2018-08-13T13:39:43.282Z,24.20
2018-08-13T13:42:47.040Z,24.04
2018-08-13T13:45:50.805Z,23.68
2018-08-13T13:48:54.841Z,23.69
2018-08-13T13:51:58.559Z,23.53
2018-08-13T13:55:02.322Z,23.72
2018-08-13T13:58:06.731Z,23.67
2018-08-13T14:01:10.456Z,23.35
2018-08-13T14:04:14.279Z,23.06
2018-08-13T14:07:17.886Z,22.73
2018-08-13T14:10:22.661Z,22.72
2018-08-13T14:13:26.290Z,22.67
2018-08-13T14:16:30.047Z,22.58
2018-08-13T14:19:33.911Z,22.49
2018-08-13T14:22:37.805Z,22.63
2018-08-13T14:25:41.609Z,22.97
2018-08-13T14:28:45.501Z,23.21
2018-08-13T14:31:49.371Z,23.67
2018-08-13T14:34:53.509Z,23.67
2018-08-13T14:37:57.131Z,23.51
2018-08-13T14:41:00.924Z,23.81
2018-08-13T14:44:04.957Z,23.83
2018-08-13T14:47:08.696Z,23.07
2018-08-13T14:50:13.002Z,23.13
2018-08-13T14:53:16.770Z,22.86
2018-08-13T14:56:20.570Z,22.77
2018-08-13T14:59:24.317Z,22.31
2018-08-13T15:02:28.097Z,22.22
2018-08-13T15:05:31.849Z,21.98
2018-08-13T15:08:35.670Z,21.63
2018-08-13T15:11:41.255Z,21.59
2018-08-13T15:14:44.965Z,21.60
2018-08-13T15:17:49.094Z,21.59
2018-08-13T15:20:52.822Z,21.70
2018-08-13T15:23:56.676Z,21.80
2018-08-13T15:27:00.529Z,21.74
2018-08-13T15:30:05.523Z,21.59
2018-08-13T15:33:09.320Z,21.13
2018-08-13T15:36:13.008Z,21.15
2018-08-13T15:39:16.642Z,21.25
2018-08-13T15:42:20.448Z,21.45
2018-08-13T15:45:24.728Z,21.32
2018-08-13T15:48:29.581Z,21.48
2018-08-13T15:51:33.318Z,21.51
2018-08-13T15:57:52.368Z,21.77
2018-08-13T16:00:55.996Z,21.39
2018-08-13T16:03:59.782Z,21.59
2018-08-13T16:07:06.705Z,21.50
2018-08-13T16:10:12.296Z,21.34
2018-08-13T16:13:16.108Z,21.44
2018-08-13T16:16:19.820Z,21.66
2018-08-13T16:19:23.536Z,21.95
2018-08-13T16:22:27.228Z,22.13
2018-08-13T16:25:31.132Z,21.88
2018-08-13T16:28:34.921Z,22.16
2018-08-13T16:31:38.766Z,21.94
2018-08-13T16:34:42.467Z,21.82
2018-08-13T16:37:46.595Z,22.06
2018-08-13T16:40:50.331Z,22.25
2018-08-13T16:43:54.169Z,22.20
2018-08-13T16:46:57.864Z,22.42
2018-08-13T16:50:01.549Z,22.28
2018-08-13T16:53:05.321Z,22.26
2018-08-13T16:56:09.039Z,22.03
2018-08-13T16:59:13.026Z,21.84
2018-08-13T17:02:16.856Z,21.78
2018-08-13T17:05:20.751Z,21.69
2018-08-13T17:08:24.454Z,21.44
2018-08-13T17:11:32.308Z,21.40
2018-08-13T17:14:36.308Z,21.31
2018-08-13T17:17:40.084Z,21.16
2018-08-13T17:20:43.970Z,21.18
2018-08-13T17:23:47.880Z,21.14
2018-08-13T17:26:51.653Z,21.01
2018-08-13T17:29:55.414Z,21.17
2018-08-13T17:33:00.332Z,21.63
2018-08-13T17:36:04.157Z,21.93
2018-08-13T17:39:10.956Z,21.84
2018-08-13T17:42:14.817Z,21.62
2018-08-13T17:45:18.777Z,21.58
2018-08-13T17:48:22.509Z,21.73
2018-08-13T17:51:26.332Z,21.36
2018-08-13T17:54:30.107Z,21.18
2018-08-13T17:57:33.893Z,21.24
2018-08-13T18:00:37.679Z,21.92
2018-08-13T18:03:41.384Z,21.85
2018-08-13T18:06:45.305Z,21.36
2018-08-13T18:09:49.019Z,21.44
2018-08-13T18:12:52.910Z,20.79
2018-08-13T18:15:56.715Z,20.58
2018-08-13T18:19:00.404Z,20.47
2018-08-13T18:22:04.164Z,20.31
2018-08-13T18:25:09.993Z,20.11
2018-08-13T18:28:13.764Z,20.07
2018-08-13T18:31:17.445Z,19.96
2018-08-13T18:34:21.216Z,19.98
2018-08-13T18:37:25.016Z,19.87
2018-08-13T18:40:34.280Z,19.81
2018-08-13T18:43:38.038Z,19.70
2018-08-13T18:46:41.755Z,19.60
2018-08-13T18:49:45.486Z,19.61
2018-08-13T18:52:49.295Z,19.54
2018-08-13T18:55:52.962Z,19.42
2018-08-13T18:58:56.752Z,19.42
2018-08-13T19:02:00.493Z,19.28
2018-08-13T19:05:04.492Z,19.14
2018-08-13T19:08:08.235Z,19.04
2018-08-13T19:11:12.008Z,18.99
2018-08-13T19:14:15.728Z,18.93
2018-08-13T19:17:19.538Z,18.84
2018-08-13T19:20:23.542Z,18.74
2018-08-13T19:23:27.612Z,18.77
2018-08-13T19:26:31.423Z,18.66
2018-08-13T19:29:35.143Z,18.63
2018-08-13T19:32:39.064Z,18.59
2018-08-13T19:35:42.828Z,18.51
2018-08-13T19:38:46.535Z,18.40
2018-08-13T19:41:50.314Z,18.43
2018-08-13T19:44:54.144Z,18.34
2018-08-13T19:47:57.980Z,18.27
2018-08-13T19:51:02.016Z,18.26
2018-08-13T19:54:05.966Z,18.26
2018-08-13T19:57:09.678Z,18.24
2018-08-13T20:00:21.615Z,18.23
2018-08-13T20:03:25.309Z,18.19
2018-08-13T20:06:29.019Z,18.26
2018-08-13T20:09:32.780Z,18.13
2018-08-13T20:12:36.664Z,18.12
2018-08-13T20:15:40.587Z,18.07
2018-08-13T20:18:44.426Z,17.98
2018-08-13T20:21:48.364Z,18.00
2018-08-13T20:24:52.210Z,17.95
2018-08-13T20:27:56.030Z,17.89
2018-08-13T20:30:59.763Z,17.83
2018-08-13T20:34:03.609Z,17.75
2018-08-13T20:37:07.495Z,17.73
2018-08-13T20:40:13.259Z,17.75
2018-08-13T20:43:17.020Z,17.68
2018-08-13T20:46:21.839Z,17.65
2018-08-13T20:49:25.948Z,17.68
2018-08-13T20:52:29.704Z,17.63
2018-08-13T20:55:34.101Z,17.64
2018-08-13T20:58:37.865Z,17.62
2018-08-13T21:01:42.327Z,17.56
2018-08-13T21:04:46.035Z,17.50
2018-08-13T21:07:50.359Z,17.50
2018-08-13T21:10:54.139Z,17.49
2018-08-13T21:13:58.076Z,17.47
2018-08-13T21:17:01.913Z,17.51
2018-08-13T21:20:06.370Z,17.50
2018-08-13T21:23:10.275Z,17.47
2018-08-13T21:26:14.014Z,17.49
2018-08-13T21:29:17.795Z,17.47
2018-08-13T21:32:21.546Z,17.45
2018-08-13T21:35:26.164Z,17.45
2018-08-13T21:38:29.950Z,17.45
2018-08-13T21:41:33.599Z,17.39
2018-08-13T21:44:37.386Z,17.36
2018-08-13T21:47:41.530Z,17.37
2018-08-13T21:50:45.217Z,17.30
2018-08-13T21:53:49.066Z,17.26
2018-08-13T21:56:52.817Z,17.21
2018-08-13T21:59:56.632Z,17.24
2018-08-13T22:03:01.962Z,17.16
2018-08-13T22:06:05.685Z,17.19
2018-08-13T22:09:10.154Z,17.22
2018-08-13T22:12:19.099Z,17.23
2018-08-13T22:15:29.106Z,17.11
2018-08-13T22:18:32.861Z,17.09
2018-08-13T22:21:37.016Z,17.11
2018-08-13T22:24:51.766Z,17.14
2018-08-13T22:27:55.545Z,17.08
2018-08-13T22:30:59.271Z,17.09
2018-08-13T22:34:02.961Z,17.16
2018-08-13T22:37:06.748Z,17.14
2018-08-13T22:40:13.845Z,17.18
2018-08-13T22:43:17.491Z,17.18
2018-08-13T22:46:21.230Z,17.18
2018-08-13T22:49:24.916Z,17.20
2018-08-13T22:52:28.782Z,17.13
2018-08-13T22:55:32.646Z,17.13
2018-08-13T22:58:36.379Z,17.13
2018-08-13T23:01:40.066Z,17.14
2018-08-13T23:04:43.791Z,17.10
2018-08-13T23:07:47.520Z,17.14
2018-08-13T23:10:51.321Z,17.14
2018-08-13T23:13:55.192Z,17.18
2018-08-13T23:16:59.100Z,17.09
2018-08-13T23:20:02.874Z,17.01
2018-08-13T23:23:06.739Z,16.99
2018-08-13T23:26:10.545Z,16.98
2018-08-13T23:29:14.201Z,17.01
2018-08-13T23:32:17.944Z,17.04
2018-08-13T23:35:22.454Z,17.01
2018-08-13T23:38:26.133Z,16.98
2018-08-13T23:41:29.837Z,17.01
2018-08-13T23:44:33.541Z,17.01
2018-08-13T23:47:37.546Z,17.01
2018-08-13T23:50:41.364Z,16.94
2018-08-13T23:53:45.050Z,16.99
2018-08-13T23:56:48.711Z,16.91
2018-08-13T23:59:52.435Z,16.88
